Terminal Aerodrome Forecast
Issued by NWS Tampa Bay Area, FL

Home | Current Version | Previous Version | Text Only | Print | Product List | Glossary On
Versions: 1 2 3 4 5 6 7 8 9 10 11 12 13 14 15 16 17 18 19
000
FTUS42 KTBW 141100
TAFSRQ
TAF
KSRQ 141139Z 1412/1512 VRB04KT P6SM FEW020 SCT250
     FM141500 22006KT P6SM SCT030 SCT250
     FM141700 25008KT P6SM VCTS SCT035CB SCT100 SCT250
     FM142000 27008KT P6SM SCT040 SCT130 BKN250
     FM150100 24004KT P6SM SCT130 BKN250
     FM150400 21004KT P6SM SCT250=

USA.gov is the U.S. government's official web portal to all federal, state and local government web resources and services.